sensor_id;sensor_type;location;lat;lon;timestamp;temperature;humidity
71155;DHT22;59375;53.216;5.728;2022-09-24T00:00:47;14.30;99.90
71155;DHT22;59375;53.216;5.728;2022-09-24T00:03:21;14.30;99.90
71155;DHT22;59375;53.216;5.728;2022-09-24T00:05:47;14.30;99.90
71155;DHT22;59375;53.216;5.728;2022-09-24T00:08:15;14.30;99.90
71155;DHT22;59375;53.216;5.728;2022-09-24T00:10:43;14.40;99.90
71155;DHT22;59375;53.216;5.728;2022-09-24T00:13:11;14.30;99.90
71155;DHT22;59375;53.216;5.728;2022-09-24T00:15:38;14.40;99.90
71155;DHT22;59375;53.216;5.728;2022-09-24T00:18:04;14.30;99.90
71155;DHT22;59375;53.216;5.728;2022-09-24T00:20:32;14.40;99.90
71155;DHT22;59375;53.216;5.728;2022-09-24T00:22:59;14.40;99.90
71155;DHT22;59375;53.216;5.728;2022-09-24T00:25:25;14.40;99.90
71155;DHT22;59375;53.216;5.728;2022-09-24T00:28:09;14.40;99.90
71155;DHT22;59375;53.216;5.728;2022-09-24T00:30:37;14.40;99.90
71155;DHT22;59375;53.216;5.728;2022-09-24T00:33:03;14.40;99.90
71155;DHT22;59375;53.216;5.728;2022-09-24T00:35:31;14.40;99.90
71155;DHT22;59375;53.216;5.728;2022-09-24T00:37:57;14.40;99.90
71155;DHT22;59375;53.216;5.728;2022-09-24T00:40:30;14.40;99.90
71155;DHT22;59375;53.216;5.728;2022-09-24T00:42:55;14.40;99.90
71155;DHT22;59375;53.216;5.728;2022-09-24T00:45:22;14.40;99.90
71155;DHT22;59375;53.216;5.728;2022-09-24T00:47:48;14.40;99.90
71155;DHT22;59375;53.216;5.728;2022-09-24T00:50:22;14.40;99.90
71155;DHT22;59375;53.216;5.728;2022-09-24T00:53:07;14.40;99.90
71155;DHT22;59375;53.216;5.728;2022-09-24T00:55:35;14.40;99.90
71155;DHT22;59375;53.216;5.728;2022-09-24T00:58:03;14.40;99.90
71155;DHT22;59375;53.216;5.728;2022-09-24T01:00:30;14.40;99.90
71155;DHT22;59375;53.216;5.728;2022-09-24T01:03:01;14.40;99.90
71155;DHT22;59375;53.216;5.728;2022-09-24T01:05:27;14.40;99.90
71155;DHT22;59375;53.216;5.728;2022-09-24T01:07:54;14.30;99.90
71155;DHT22;59375;53.216;5.728;2022-09-24T01:10:32;14.40;99.90
71155;DHT22;59375;53.216;5.728;2022-09-24T01:21:38;14.30;99.90
71155;DHT22;59375;53.216;5.728;2022-09-24T01:30:11;14.20;99.90
71155;DHT22;59375;53.216;5.728;2022-09-24T01:32:46;14.10;99.90
71155;DHT22;59375;53.216;5.728;2022-09-24T01:35:36;14.00;99.90
71155;DHT22;59375;53.216;5.728;2022-09-24T01:38:08;14.00;99.90
71155;DHT22;59375;53.216;5.728;2022-09-24T01:40:38;13.90;99.90
71155;DHT22;59375;53.216;5.728;2022-09-24T01:43:06;13.90;99.90
71155;DHT22;59375;53.216;5.728;2022-09-24T01:45:34;13.90;99.90
71155;DHT22;59375;53.216;5.728;2022-09-24T01:48:03;13.90;99.90
71155;DHT22;59375;53.216;5.728;2022-09-24T01:50:32;13.90;99.90
71155;DHT22;59375;53.216;5.728;2022-09-24T01:53:09;13.90;99.90
71155;DHT22;59375;53.216;5.728;2022-09-24T01:55:44;13.90;99.90
71155;DHT22;59375;53.216;5.728;2022-09-24T01:58:20;13.90;99.90
71155;DHT22;59375;53.216;5.728;2022-09-24T02:00:49;13.90;99.90
71155;DHT22;59375;53.216;5.728;2022-09-24T02:03:25;13.90;99.90
71155;DHT22;59375;53.216;5.728;2022-09-24T02:06:12;13.90;99.90
71155;DHT22;59375;53.216;5.728;2022-09-24T02:08:43;13.90;99.90
71155;DHT22;59375;53.216;5.728;2022-09-24T02:11:22;13.90;99.90
71155;DHT22;59375;53.216;5.728;2022-09-24T02:14:02;13.90;99.90
71155;DHT22;59375;53.216;5.728;2022-09-24T02:16:35;13.90;99.90
71155;DHT22;59375;53.216;5.728;2022-09-24T02:19:05;13.80;99.90
71155;DHT22;59375;53.216;5.728;2022-09-24T02:21:32;13.80;99.90
71155;DHT22;59375;53.216;5.728;2022-09-24T02:24:04;13.80;99.90
71155;DHT22;59375;53.216;5.728;2022-09-24T02:26:30;13.80;99.90
71155;DHT22;59375;53.216;5.728;2022-09-24T02:28:56;13.80;99.90
71155;DHT22;59375;53.216;5.728;2022-09-24T02:31:26;13.80;99.90
71155;DHT22;59375;53.216;5.728;2022-09-24T02:33:53;13.80;99.90
71155;DHT22;59375;53.216;5.728;2022-09-24T02:36:38;13.80;99.90
71155;DHT22;59375;53.216;5.728;2022-09-24T02:39:05;13.80;99.90
71155;DHT22;59375;53.216;5.728;2022-09-24T02:41:30;13.80;99.90
71155;DHT22;59375;53.216;5.728;2022-09-24T02:43:57;13.80;99.90
71155;DHT22;59375;53.216;5.728;2022-09-24T02:46:22;13.80;99.90
71155;DHT22;59375;53.216;5.728;2022-09-24T02:48:48;13.80;99.90
71155;DHT22;59375;53.216;5.728;2022-09-24T02:51:14;13.80;99.90
71155;DHT22;59375;53.216;5.728;2022-09-24T02:53:40;13.80;99.90
71155;DHT22;59375;53.216;5.728;2022-09-24T02:56:06;13.80;99.90
71155;DHT22;59375;53.216;5.728;2022-09-24T02:58:32;13.70;99.90
71155;DHT22;59375;53.216;5.728;2022-09-24T03:00:58;13.70;99.90
71155;DHT22;59375;53.216;5.728;2022-09-24T03:03:24;13.70;99.90
71155;DHT22;59375;53.216;5.728;2022-09-24T03:05:50;13.70;99.90
71155;DHT22;59375;53.216;5.728;2022-09-24T03:08:20;13.70;99.90
71155;DHT22;59375;53.216;5.728;2022-09-24T03:10:46;13.70;99.90
71155;DHT22;59375;53.216;5.728;2022-09-24T03:13:15;13.70;99.90
71155;DHT22;59375;53.216;5.728;2022-09-24T03:15:43;13.60;99.90
71155;DHT22;59375;53.216;5.728;2022-09-24T03:18:09;13.60;99.90
71155;DHT22;59375;53.216;5.728;2022-09-24T03:20:34;13.60;99.90
71155;DHT22;59375;53.216;5.728;2022-09-24T03:23:00;13.60;99.90
71155;DHT22;59375;53.216;5.728;2022-09-24T03:25:25;13.60;99.90
71155;DHT22;59375;53.216;5.728;2022-09-24T03:27:51;13.60;99.90
71155;DHT22;59375;53.216;5.728;2022-09-24T03:30:16;13.60;99.90
71155;DHT22;59375;53.216;5.728;2022-09-24T03:33:00;13.60;99.90
71155;DHT22;59375;53.216;5.728;2022-09-24T03:35:26;13.60;99.90
71155;DHT22;59375;53.216;5.728;2022-09-24T03:37:51;13.60;99.90
71155;DHT22;59375;53.216;5.728;2022-09-24T03:40:17;13.50;99.90
71155;DHT22;59375;53.216;5.728;2022-09-24T03:42:42;13.50;99.90
71155;DHT22;59375;53.216;5.728;2022-09-24T03:45:08;13.50;99.90
71155;DHT22;59375;53.216;5.728;2022-09-24T03:47:34;13.40;99.90
71155;DHT22;59375;53.216;5.728;2022-09-24T03:50:00;13.40;99.90
71155;DHT22;59375;53.216;5.728;2022-09-24T03:52:25;13.40;99.90
71155;DHT22;59375;53.216;5.728;2022-09-24T03:54:51;13.30;99.90
71155;DHT22;59375;53.216;5.728;2022-09-24T03:57:17;13.30;99.90
71155;DHT22;59375;53.216;5.728;2022-09-24T03:59:43;13.30;99.90
71155;DHT22;59375;53.216;5.728;2022-09-24T04:02:10;13.20;99.90
71155;DHT22;59375;53.216;5.728;2022-09-24T04:04:36;13.20;99.90
71155;DHT22;59375;53.216;5.728;2022-09-24T04:07:02;13.20;99.90
71155;DHT22;59375;53.216;5.728;2022-09-24T04:09:27;13.10;99.90
71155;DHT22;59375;53.216;5.728;2022-09-24T04:11:53;13.10;99.90
71155;DHT22;59375;53.216;5.728;2022-09-24T04:14:19;13.10;99.90
71155;DHT22;59375;53.216;5.728;2022-09-24T04:16:45;13.10;99.90
71155;DHT22;59375;53.216;5.728;2022-09-24T04:19:12;13.00;99.90
71155;DHT22;59375;53.216;5.728;2022-09-24T04:21:38;13.00;99.90
71155;DHT22;59375;53.216;5.728;2022-09-24T04:24:04;13.00;99.90
71155;DHT22;59375;53.216;5.728;2022-09-24T04:26:29;13.00;99.90
71155;DHT22;59375;53.216;5.728;2022-09-24T04:28:55;13.00;99.90
71155;DHT22;59375;53.216;5.728;2022-09-24T04:31:23;13.00;99.90
71155;DHT22;59375;53.216;5.728;2022-09-24T04:33:49;13.00;99.90
71155;DHT22;59375;53.216;5.728;2022-09-24T04:36:14;13.00;99.90
71155;DHT22;59375;53.216;5.728;2022-09-24T04:38:41;13.00;99.90
71155;DHT22;59375;53.216;5.728;2022-09-24T04:41:07;13.00;99.90
71155;DHT22;59375;53.216;5.728;2022-09-24T04:43:33;12.90;99.90
71155;DHT22;59375;53.216;5.728;2022-09-24T04:46:01;13.00;99.90
71155;DHT22;59375;53.216;5.728;2022-09-24T04:48:28;12.90;99.90
71155;DHT22;59375;53.216;5.728;2022-09-24T04:50:54;13.00;99.90
71155;DHT22;59375;53.216;5.728;2022-09-24T04:53:19;13.00;99.90
71155;DHT22;59375;53.216;5.728;2022-09-24T04:55:46;13.00;99.90
71155;DHT22;59375;53.216;5.728;2022-09-24T04:58:11;13.00;99.90
71155;DHT22;59375;53.216;5.728;2022-09-24T05:00:37;13.00;99.90
71155;DHT22;59375;53.216;5.728;2022-09-24T05:03:03;13.00;99.90
71155;DHT22;59375;53.216;5.728;2022-09-24T05:05:30;13.00;99.90
71155;DHT22;59375;53.216;5.728;2022-09-24T05:07:57;13.10;99.90
71155;DHT22;59375;53.216;5.728;2022-09-24T05:10:24;13.10;99.90
71155;DHT22;59375;53.216;5.728;2022-09-24T05:12:49;13.10;99.90
71155;DHT22;59375;53.216;5.728;2022-09-24T05:15:15;13.10;99.90
71155;DHT22;59375;53.216;5.728;2022-09-24T05:17:43;13.20;99.90
71155;DHT22;59375;53.216;5.728;2022-09-24T05:20:10;13.10;99.90
71155;DHT22;59375;53.216;5.728;2022-09-24T05:22:43;13.10;99.90
71155;DHT22;59375;53.216;5.728;2022-09-24T05:25:11;13.10;99.90
71155;DHT22;59375;53.216;5.728;2022-09-24T05:27:42;13.10;99.90
71155;DHT22;59375;53.216;5.728;2022-09-24T05:30:08;13.10;99.90
71155;DHT22;59375;53.216;5.728;2022-09-24T05:32:34;13.00;99.90
71155;DHT22;59375;53.216;5.728;2022-09-24T05:35:01;13.00;99.90
71155;DHT22;59375;53.216;5.728;2022-09-24T05:37:26;13.00;99.90
71155;DHT22;59375;53.216;5.728;2022-09-24T05:39:52;13.00;99.90
71155;DHT22;59375;53.216;5.728;2022-09-24T05:42:19;13.00;99.90
71155;DHT22;59375;53.216;5.728;2022-09-24T05:44:44;13.00;99.90
71155;DHT22;59375;53.216;5.728;2022-09-24T05:47:10;12.90;99.90
71155;DHT22;59375;53.216;5.728;2022-09-24T05:49:36;12.90;99.90
71155;DHT22;59375;53.216;5.728;2022-09-24T05:52:02;12.90;99.90
71155;DHT22;59375;53.216;5.728;2022-09-24T05:54:28;12.90;99.90
71155;DHT22;59375;53.216;5.728;2022-09-24T05:56:54;13.00;99.90
71155;DHT22;59375;53.216;5.728;2022-09-24T05:59:19;13.00;99.90
71155;DHT22;59375;53.216;5.728;2022-09-24T06:01:45;13.00;99.90
71155;DHT22;59375;53.216;5.728;2022-09-24T06:04:11;13.00;99.90
71155;DHT22;59375;53.216;5.728;2022-09-24T06:06:37;13.00;99.90
71155;DHT22;59375;53.216;5.728;2022-09-24T06:09:03;13.00;99.90
71155;DHT22;59375;53.216;5.728;2022-09-24T06:11:31;13.00;99.90
71155;DHT22;59375;53.216;5.728;2022-09-24T06:14:02;13.10;99.90
71155;DHT22;59375;53.216;5.728;2022-09-24T06:16:30;13.10;99.90
71155;DHT22;59375;53.216;5.728;2022-09-24T06:18:56;13.10;99.90
71155;DHT22;59375;53.216;5.728;2022-09-24T06:21:21;13.10;99.90
71155;DHT22;59375;53.216;5.728;2022-09-24T06:23:47;13.20;99.90
71155;DHT22;59375;53.216;5.728;2022-09-24T06:26:13;13.20;99.90
71155;DHT22;59375;53.216;5.728;2022-09-24T06:28:40;13.20;99.90
71155;DHT22;59375;53.216;5.728;2022-09-24T06:31:06;13.30;99.90
71155;DHT22;59375;53.216;5.728;2022-09-24T06:33:32;13.30;99.90
71155;DHT22;59375;53.216;5.728;2022-09-24T06:36:01;13.40;99.90
71155;DHT22;59375;53.216;5.728;2022-09-24T06:38:28;13.40;99.90
71155;DHT22;59375;53.216;5.728;2022-09-24T06:41:00;13.50;99.90
71155;DHT22;59375;53.216;5.728;2022-09-24T06:43:26;13.50;99.90
71155;DHT22;59375;53.216;5.728;2022-09-24T06:45:56;13.60;99.90
71155;DHT22;59375;53.216;5.728;2022-09-24T06:48:21;13.60;99.90
71155;DHT22;59375;53.216;5.728;2022-09-24T06:50:48;13.70;99.90
71155;DHT22;59375;53.216;5.728;2022-09-24T06:53:14;13.70;99.90
71155;DHT22;59375;53.216;5.728;2022-09-24T06:55:40;13.70;99.90
71155;DHT22;59375;53.216;5.728;2022-09-24T06:58:08;13.80;99.90
71155;DHT22;59375;53.216;5.728;2022-09-24T07:00:35;13.80;99.90
71155;DHT22;59375;53.216;5.728;2022-09-24T07:03:02;13.80;99.90
71155;DHT22;59375;53.216;5.728;2022-09-24T07:05:27;13.90;99.90
71155;DHT22;59375;53.216;5.728;2022-09-24T07:07:53;13.90;99.90
71155;DHT22;59375;53.216;5.728;2022-09-24T07:10:18;13.90;99.90
71155;DHT22;59375;53.216;5.728;2022-09-24T07:12:44;13.90;99.90
71155;DHT22;59375;53.216;5.728;2022-09-24T07:15:10;13.90;99.90
71155;DHT22;59375;53.216;5.728;2022-09-24T07:17:36;14.00;99.90
71155;DHT22;59375;53.216;5.728;2022-09-24T07:20:03;14.00;99.90
71155;DHT22;59375;53.216;5.728;2022-09-24T07:22:28;14.00;99.90
71155;DHT22;59375;53.216;5.728;2022-09-24T07:24:54;14.00;99.90
71155;DHT22;59375;53.216;5.728;2022-09-24T07:27:20;14.00;99.90
71155;DHT22;59375;53.216;5.728;2022-09-24T07:29:46;14.00;99.90
71155;DHT22;59375;53.216;5.728;2022-09-24T07:32:14;14.00;99.90
71155;DHT22;59375;53.216;5.728;2022-09-24T07:34:39;14.10;99.90
71155;DHT22;59375;53.216;5.728;2022-09-24T07:37:05;14.10;99.90
71155;DHT22;59375;53.216;5.728;2022-09-24T07:39:32;14.10;99.90
71155;DHT22;59375;53.216;5.728;2022-09-24T07:41:57;14.00;99.90
71155;DHT22;59375;53.216;5.728;2022-09-24T07:44:23;14.00;99.90
71155;DHT22;59375;53.216;5.728;2022-09-24T07:46:50;14.00;99.90
71155;DHT22;59375;53.216;5.728;2022-09-24T07:49:15;14.00;99.90
71155;DHT22;59375;53.216;5.728;2022-09-24T07:51:41;14.00;99.90
71155;DHT22;59375;53.216;5.728;2022-09-24T07:54:07;14.00;99.90
71155;DHT22;59375;53.216;5.728;2022-09-24T07:56:33;14.00;99.90
71155;DHT22;59375;53.216;5.728;2022-09-24T07:58:59;14.00;99.90
71155;DHT22;59375;53.216;5.728;2022-09-24T08:01:25;14.10;99.90
71155;DHT22;59375;53.216;5.728;2022-09-24T08:03:52;14.20;99.90
71155;DHT22;59375;53.216;5.728;2022-09-24T08:06:18;14.30;99.90
71155;DHT22;59375;53.216;5.728;2022-09-24T08:08:44;14.40;99.90
71155;DHT22;59375;53.216;5.728;2022-09-24T08:11:12;14.60;99.90
71155;DHT22;59375;53.216;5.728;2022-09-24T08:13:38;14.60;99.90
71155;DHT22;59375;53.216;5.728;2022-09-24T08:16:04;14.70;99.90
71155;DHT22;59375;53.216;5.728;2022-09-24T08:18:31;14.70;99.90
71155;DHT22;59375;53.216;5.728;2022-09-24T08:20:58;14.80;99.90
71155;DHT22;59375;53.216;5.728;2022-09-24T08:23:24;14.90;99.90
71155;DHT22;59375;53.216;5.728;2022-09-24T08:25:52;15.00;99.90
71155;DHT22;59375;53.216;5.728;2022-09-24T08:28:17;15.20;99.90
71155;DHT22;59375;53.216;5.728;2022-09-24T08:30:44;15.30;99.90
71155;DHT22;59375;53.216;5.728;2022-09-24T08:33:10;15.50;99.90
71155;DHT22;59375;53.216;5.728;2022-09-24T08:35:36;15.70;99.90
71155;DHT22;59375;53.216;5.728;2022-09-24T08:38:04;15.90;99.90
71155;DHT22;59375;53.216;5.728;2022-09-24T08:40:35;16.00;99.90
71155;DHT22;59375;53.216;5.728;2022-09-24T08:43:36;16.10;99.90
71155;DHT22;59375;53.216;5.728;2022-09-24T08:46:14;16.00;99.90
71155;DHT22;59375;53.216;5.728;2022-09-24T08:49:00;15.90;99.90
71155;DHT22;59375;53.216;5.728;2022-09-24T08:51:32;15.80;99.90
71155;DHT22;59375;53.216;5.728;2022-09-24T08:54:07;15.80;99.90
71155;DHT22;59375;53.216;5.728;2022-09-24T08:56:36;15.70;99.90
71155;DHT22;59375;53.216;5.728;2022-09-24T09:01:44;15.50;99.90
71155;DHT22;59375;53.216;5.728;2022-09-24T09:04:40;15.40;99.90
71155;DHT22;59375;53.216;5.728;2022-09-24T09:07:14;15.40;99.90
71155;DHT22;59375;53.216;5.728;2022-09-24T09:12:22;15.50;99.90
71155;DHT22;59375;53.216;5.728;2022-09-24T09:15:36;15.60;99.90
71155;DHT22;59375;53.216;5.728;2022-09-24T09:17:49;15.60;99.90
71155;DHT22;59375;53.216;5.728;2022-09-24T09:20:23;15.60;99.90
71155;DHT22;59375;53.216;5.728;2022-09-24T09:22:53;15.60;99.90
71155;DHT22;59375;53.216;5.728;2022-09-24T09:25:23;15.50;99.90
71155;DHT22;59375;53.216;5.728;2022-09-24T09:28:01;15.50;99.90
71155;DHT22;59375;53.216;5.728;2022-09-24T09:30:34;15.60;99.90
71155;DHT22;59375;53.216;5.728;2022-09-24T09:33:19;15.60;99.90
71155;DHT22;59375;53.216;5.728;2022-09-24T09:38:59;15.70;99.90
71155;DHT22;59375;53.216;5.728;2022-09-24T09:41:37;15.60;99.90
71155;DHT22;59375;53.216;5.728;2022-09-24T09:44:39;15.60;99.90
71155;DHT22;59375;53.216;5.728;2022-09-24T09:47:28;15.70;99.90
71155;DHT22;59375;53.216;5.728;2022-09-24T09:49:57;15.70;99.90
71155;DHT22;59375;53.216;5.728;2022-09-24T09:52:27;15.80;99.90
71155;DHT22;59375;53.216;5.728;2022-09-24T09:54:54;15.90;99.90
71155;DHT22;59375;53.216;5.728;2022-09-24T09:57:23;15.90;99.90
71155;DHT22;59375;53.216;5.728;2022-09-24T09:59:51;16.00;99.90
71155;DHT22;59375;53.216;5.728;2022-09-24T10:02:24;16.10;99.90
71155;DHT22;59375;53.216;5.728;2022-09-24T10:05:17;16.20;99.90
71155;DHT22;59375;53.216;5.728;2022-09-24T10:07:44;16.30;99.90
71155;DHT22;59375;53.216;5.728;2022-09-24T10:10:21;16.30;99.90
71155;DHT22;59375;53.216;5.728;2022-09-24T10:13:07;16.40;99.90
71155;DHT22;59375;53.216;5.728;2022-09-24T10:15:33;16.50;99.90
71155;DHT22;59375;53.216;5.728;2022-09-24T10:18:03;16.50;99.90
71155;DHT22;59375;53.216;5.728;2022-09-24T10:20:31;16.60;99.90
71155;DHT22;59375;53.216;5.728;2022-09-24T10:23:02;16.70;99.90
71155;DHT22;59375;53.216;5.728;2022-09-24T10:25:30;16.80;99.90
71155;DHT22;59375;53.216;5.728;2022-09-24T10:27:59;17.00;99.90
71155;DHT22;59375;53.216;5.728;2022-09-24T10:30:59;17.00;99.90
71155;DHT22;59375;53.216;5.728;2022-09-24T10:33:26;16.90;99.90
71155;DHT22;59375;53.216;5.728;2022-09-24T10:36:06;16.90;99.90
71155;DHT22;59375;53.216;5.728;2022-09-24T10:38:32;16.80;99.90
71155;DHT22;59375;53.216;5.728;2022-09-24T10:40:58;16.80;99.90
71155;DHT22;59375;53.216;5.728;2022-09-24T10:43:24;17.00;99.90
71155;DHT22;59375;53.216;5.728;2022-09-24T10:46:19;17.10;99.90
71155;DHT22;59375;53.216;5.728;2022-09-24T10:48:53;17.00;99.90
71155;DHT22;59375;53.216;5.728;2022-09-24T10:51:30;16.80;99.90
71155;DHT22;59375;53.216;5.728;2022-09-24T10:54:16;16.80;99.90
71155;DHT22;59375;53.216;5.728;2022-09-24T10:56:49;16.80;99.90
71155;DHT22;59375;53.216;5.728;2022-09-24T10:59:50;16.90;99.90
71155;DHT22;59375;53.216;5.728;2022-09-24T11:04:58;16.60;99.90
71155;DHT22;59375;53.216;5.728;2022-09-24T11:07:41;16.50;99.90
71155;DHT22;59375;53.216;5.728;2022-09-24T11:11:02;16.30;99.90
71155;DHT22;59375;53.216;5.728;2022-09-24T11:18:42;16.50;99.90
71155;DHT22;59375;53.216;5.728;2022-09-24T11:27:22;16.60;99.90
71155;DHT22;59375;53.216;5.728;2022-09-24T11:32:48;16.80;99.90
71155;DHT22;59375;53.216;5.728;2022-09-24T11:38:14;17.10;99.90
71155;DHT22;59375;53.216;5.728;2022-09-24T11:40:46;17.20;99.90
71155;DHT22;59375;53.216;5.728;2022-09-24T11:43:38;17.30;99.90
71155;DHT22;59375;53.216;5.728;2022-09-24T11:46:34;17.40;99.90
71155;DHT22;59375;53.216;5.728;2022-09-24T11:49:28;17.10;99.90
71155;DHT22;59375;53.216;5.728;2022-09-24T11:52:34;17.60;99.50
71155;DHT22;59375;53.216;5.728;2022-09-24T11:55:30;18.10;99.90
71155;DHT22;59375;53.216;5.728;2022-09-24T11:58:17;18.60;98.70
71155;DHT22;59375;53.216;5.728;2022-09-24T12:06:12;19.80;96.50
71155;DHT22;59375;53.216;5.728;2022-09-24T12:09:00;20.20;95.80
71155;DHT22;59375;53.216;5.728;2022-09-24T12:11:34;20.50;95.40
71155;DHT22;59375;53.216;5.728;2022-09-24T12:14:08;20.20;95.60
71155;DHT22;59375;53.216;5.728;2022-09-24T12:16:38;20.20;95.10
71155;DHT22;59375;53.216;5.728;2022-09-24T12:19:20;20.60;95.90
71155;DHT22;59375;53.216;5.728;2022-09-24T12:21:48;21.20;94.40
71155;DHT22;59375;53.216;5.728;2022-09-24T12:24:36;20.80;94.10
71155;DHT22;59375;53.216;5.728;2022-09-24T12:27:12;20.00;94.40
71155;DHT22;59375;53.216;5.728;2022-09-24T12:30:37;20.10;94.10
71155;DHT22;59375;53.216;5.728;2022-09-24T12:33:25;20.40;94.10
71155;DHT22;59375;53.216;5.728;2022-09-24T12:36:03;20.90;93.90
71155;DHT22;59375;53.216;5.728;2022-09-24T12:41:24;21.00;93.80
71155;DHT22;59375;53.216;5.728;2022-09-24T12:46:39;21.80;91.70
71155;DHT22;59375;53.216;5.728;2022-09-24T12:51:49;22.10;91.30
71155;DHT22;59375;53.216;5.728;2022-09-24T12:54:34;22.20;91.40
71155;DHT22;59375;53.216;5.728;2022-09-24T12:59:55;21.80;91.50
71155;DHT22;59375;53.216;5.728;2022-09-24T13:02:26;22.00;91.10
71155;DHT22;59375;53.216;5.728;2022-09-24T13:09:53;21.40;93.00
71155;DHT22;59375;53.216;5.728;2022-09-24T13:12:29;21.50;92.60
71155;DHT22;59375;53.216;5.728;2022-09-24T13:15:01;21.70;92.10
71155;DHT22;59375;53.216;5.728;2022-09-24T13:17:33;21.70;91.80
71155;DHT22;59375;53.216;5.728;2022-09-24T13:20:06;22.20;92.00
71155;DHT22;59375;53.216;5.728;2022-09-24T13:22:34;22.60;91.00
71155;DHT22;59375;53.216;5.728;2022-09-24T13:35:21;21.30;91.80
71155;DHT22;59375;53.216;5.728;2022-09-24T13:37:52;20.50;92.20
71155;DHT22;59375;53.216;5.728;2022-09-24T13:40:28;20.00;93.10
71155;DHT22;59375;53.216;5.728;2022-09-24T13:45:39;20.60;92.80
71155;DHT22;59375;53.216;5.728;2022-09-24T13:48:17;21.00;93.00
71155;DHT22;59375;53.216;5.728;2022-09-24T13:50:48;20.80;93.30
71155;DHT22;59375;53.216;5.728;2022-09-24T13:53:21;20.60;93.60
71155;DHT22;59375;53.216;5.728;2022-09-24T13:55:52;20.20;94.00
71155;DHT22;59375;53.216;5.728;2022-09-24T13:58:32;19.60;95.20
71155;DHT22;59375;53.216;5.728;2022-09-24T14:01:02;18.90;95.80
71155;DHT22;59375;53.216;5.728;2022-09-24T14:03:29;18.30;96.20
71155;DHT22;59375;53.216;5.728;2022-09-24T14:06:01;18.10;97.20
71155;DHT22;59375;53.216;5.728;2022-09-24T14:08:27;18.00;98.20
71155;DHT22;59375;53.216;5.728;2022-09-24T14:11:05;18.10;97.40
71155;DHT22;59375;53.216;5.728;2022-09-24T14:13:35;18.00;97.80
71155;DHT22;59375;53.216;5.728;2022-09-24T14:16:08;17.80;98.40
71155;DHT22;59375;53.216;5.728;2022-09-24T14:18:34;17.60;98.00
71155;DHT22;59375;53.216;5.728;2022-09-24T14:21:31;17.50;99.20
71155;DHT22;59375;53.216;5.728;2022-09-24T14:24:03;17.50;99.20
71155;DHT22;59375;53.216;5.728;2022-09-24T14:26:32;17.30;99.80
71155;DHT22;59375;53.216;5.728;2022-09-24T14:29:02;16.90;99.90
71155;DHT22;59375;53.216;5.728;2022-09-24T14:31:29;16.60;99.90
71155;DHT22;59375;53.216;5.728;2022-09-24T14:33:55;16.40;99.90
71155;DHT22;59375;53.216;5.728;2022-09-24T14:36:21;16.40;99.90
71155;DHT22;59375;53.216;5.728;2022-09-24T14:39:04;16.30;99.90
71155;DHT22;59375;53.216;5.728;2022-09-24T14:41:34;16.10;99.90
71155;DHT22;59375;53.216;5.728;2022-09-24T14:44:07;16.20;99.90
71155;DHT22;59375;53.216;5.728;2022-09-24T14:46:48;16.40;99.90
71155;DHT22;59375;53.216;5.728;2022-09-24T14:49:31;16.60;99.90
71155;DHT22;59375;53.216;5.728;2022-09-24T14:52:28;16.70;99.90
71155;DHT22;59375;53.216;5.728;2022-09-24T14:55:19;16.90;99.90
71155;DHT22;59375;53.216;5.728;2022-09-24T14:57:46;16.70;99.90
71155;DHT22;59375;53.216;5.728;2022-09-24T15:00:19;16.70;99.90
71155;DHT22;59375;53.216;5.728;2022-09-24T15:02:59;16.50;99.90
71155;DHT22;59375;53.216;5.728;2022-09-24T15:05:26;16.20;99.90
71155;DHT22;59375;53.216;5.728;2022-09-24T15:11:00;15.90;99.90
71155;DHT22;59375;53.216;5.728;2022-09-24T15:13:34;15.90;99.90
71155;DHT22;59375;53.216;5.728;2022-09-24T15:16:33;16.00;99.90
71155;DHT22;59375;53.216;5.728;2022-09-24T15:19:18;16.10;99.90
71155;DHT22;59375;53.216;5.728;2022-09-24T15:21:46;16.10;99.90
71155;DHT22;59375;53.216;5.728;2022-09-24T15:24:13;16.10;99.90
71155;DHT22;59375;53.216;5.728;2022-09-24T15:26:41;16.00;99.90
71155;DHT22;59375;53.216;5.728;2022-09-24T15:29:09;15.90;99.90
71155;DHT22;59375;53.216;5.728;2022-09-24T15:31:40;15.80;99.90
71155;DHT22;59375;53.216;5.728;2022-09-24T15:34:05;15.60;99.90
71155;DHT22;59375;53.216;5.728;2022-09-24T15:36:31;15.60;99.90
71155;DHT22;59375;53.216;5.728;2022-09-24T15:39:01;15.60;99.90
71155;DHT22;59375;53.216;5.728;2022-09-24T15:41:27;15.80;99.90
71155;DHT22;59375;53.216;5.728;2022-09-24T15:43:57;15.90;99.90
71155;DHT22;59375;53.216;5.728;2022-09-24T15:46:23;16.10;99.90
71155;DHT22;59375;53.216;5.728;2022-09-24T15:48:50;16.10;99.90
71155;DHT22;59375;53.216;5.728;2022-09-24T15:51:18;16.20;99.90
71155;DHT22;59375;53.216;5.728;2022-09-24T15:53:44;16.20;99.90
71155;DHT22;59375;53.216;5.728;2022-09-24T15:56:10;16.20;99.90
71155;DHT22;59375;53.216;5.728;2022-09-24T15:58:36;16.10;99.90
71155;DHT22;59375;53.216;5.728;2022-09-24T16:01:01;16.00;99.90
71155;DHT22;59375;53.216;5.728;2022-09-24T16:03:29;15.90;99.90
71155;DHT22;59375;53.216;5.728;2022-09-24T16:05:56;15.80;99.90
71155;DHT22;59375;53.216;5.728;2022-09-24T16:08:23;15.70;99.90
71155;DHT22;59375;53.216;5.728;2022-09-24T16:10:49;15.60;99.90
71155;DHT22;59375;53.216;5.728;2022-09-24T16:13:15;15.60;99.90
71155;DHT22;59375;53.216;5.728;2022-09-24T16:15:41;15.70;99.90
71155;DHT22;59375;53.216;5.728;2022-09-24T16:18:10;15.60;99.90
71155;DHT22;59375;53.216;5.728;2022-09-24T16:20:38;15.60;99.90
71155;DHT22;59375;53.216;5.728;2022-09-24T16:23:04;15.50;99.90
71155;DHT22;59375;53.216;5.728;2022-09-24T16:25:30;15.50;99.90
71155;DHT22;59375;53.216;5.728;2022-09-24T16:27:57;15.50;99.90
71155;DHT22;59375;53.216;5.728;2022-09-24T16:30:23;15.50;99.90
71155;DHT22;59375;53.216;5.728;2022-09-24T16:32:49;15.50;99.90
71155;DHT22;59375;53.216;5.728;2022-09-24T16:35:15;15.50;99.90
71155;DHT22;59375;53.216;5.728;2022-09-24T16:37:40;15.40;99.90
71155;DHT22;59375;53.216;5.728;2022-09-24T16:40:06;15.30;99.90
71155;DHT22;59375;53.216;5.728;2022-09-24T16:42:33;15.20;99.90
71155;DHT22;59375;53.216;5.728;2022-09-24T16:44:58;15.20;99.90
71155;DHT22;59375;53.216;5.728;2022-09-24T16:47:24;15.10;99.90
71155;DHT22;59375;53.216;5.728;2022-09-24T16:49:49;15.10;99.90
71155;DHT22;59375;53.216;5.728;2022-09-24T16:52:15;15.20;99.90
71155;DHT22;59375;53.216;5.728;2022-09-24T16:54:40;15.30;99.90
71155;DHT22;59375;53.216;5.728;2022-09-24T16:57:06;15.20;99.90
71155;DHT22;59375;53.216;5.728;2022-09-24T16:59:33;15.20;99.90
71155;DHT22;59375;53.216;5.728;2022-09-24T17:01:58;15.10;99.90
71155;DHT22;59375;53.216;5.728;2022-09-24T17:04:25;15.00;99.90
71155;DHT22;59375;53.216;5.728;2022-09-24T17:06:55;15.00;99.90
71155;DHT22;59375;53.216;5.728;2022-09-24T17:09:21;14.80;99.90
71155;DHT22;59375;53.216;5.728;2022-09-24T17:12:05;14.70;99.90